Time;durP1;ratioP1;P1;durP2;ratioP2;P2;SDS_P1;SDS_P2;PMS_P1;PMS_P2;Temp;Humidity;BMP_temperature;BMP_pressure;BME280_temperature;BME280_humidity;BME280_pressure;Samples;Min_cycle;Max_cycle;Signal;HPM_P1;HPM_P2
2022/07/15 00:00:00;;;;;;;;;4.00;4.00;;;;;24.01;49.40;98168.19;4917057;28;102157;-59
2022/07/15 00:02:28;;;;;;;;;3.00;3.00;;;;;24.00;49.27;98167.34;4907679;28;105581;-59
2022/07/15 00:04:55;;;;;;;;;4.00;4.00;;;;;23.98;49.40;98164.09;4908895;28;102523;-59
2022/07/15 00:07:22;;;;;;;;;4.00;4.00;;;;;23.99;49.38;98176.78;4905883;28;104229;-59
2022/07/15 00:12:35;;;;;;;;;3.00;3.00;;;;;23.96;49.52;98196.69;4911596;28;102124;-59
2022/07/15 00:15:02;;;;;;;;;4.00;4.00;;;;;24.00;49.29;98199.69;4917873;28;102104;-59
2022/07/15 00:17:29;;;;;;;;;3.33;3.33;;;;;24.00;49.48;98196.94;4915712;28;104065;-60
2022/07/15 00:19:56;;;;;;;;;5.67;5.00;;;;;23.98;49.31;98197.22;4915620;28;103198;-59
2022/07/15 00:22:24;;;;;;;;;3.00;3.00;;;;;23.99;49.20;98196.13;4917897;28;102231;-59
2022/07/15 00:24:51;;;;;;;;;4.33;4.33;;;;;23.99;49.30;98190.59;4917670;28;102202;-59
2022/07/15 00:27:18;;;;;;;;;3.00;3.00;;;;;23.99;49.24;98193.34;4916861;28;109115;-59
2022/07/15 00:29:45;;;;;;;;;3.00;3.00;;;;;23.98;49.47;98191.72;4912945;28;102172;-59
2022/07/15 00:32:12;;;;;;;;;3.33;3.33;;;;;23.99;49.14;98192.53;4894811;28;102260;-59
2022/07/15 00:34:39;;;;;;;;;4.33;3.67;;;;;23.99;49.29;98190.59;4915007;28;102418;-59
2022/07/15 00:37:07;;;;;;;;;3.00;3.00;;;;;23.98;49.07;98186.19;4909131;28;109113;-59
2022/07/15 00:39:34;;;;;;;;;3.00;3.00;;;;;23.98;49.06;98180.66;4912796;28;102192;-59
2022/07/15 00:42:01;;;;;;;;;4.00;4.00;;;;;23.96;49.40;98182.88;4910725;28;102783;-59
2022/07/15 00:44:28;;;;;;;;;3.33;3.33;;;;;23.95;49.46;98183.19;4914144;28;102994;-59
2022/07/15 00:46:56;;;;;;;;;3.00;3.00;;;;;23.94;49.41;98174.09;4911891;28;104213;-59
2022/07/15 00:49:23;;;;;;;;;5.00;4.00;;;;;23.96;49.20;98176.53;4910541;28;103880;-59
2022/07/15 00:51:50;;;;;;;;;5.00;4.33;;;;;23.95;49.21;98175.75;4914084;28;102284;-59
2022/07/15 00:54:23;;;;;;;;;3.67;3.67;;;;;23.97;49.24;98172.66;4910345;28;102494;-59
2022/07/15 00:56:52;;;;;;;;;4.33;4.00;;;;;23.97;49.23;98167.13;4912845;28;108877;-59
2022/07/15 00:59:20;;;;;;;;;3.00;3.00;;;;;23.95;49.35;98166.63;4915091;28;102870;-59
2022/07/15 01:01:47;;;;;;;;;4.33;4.00;;;;;23.97;49.30;98167.97;4912592;28;106622;-59
2022/07/15 01:04:15;;;;;;;;;3.00;3.00;;;;;23.97;49.13;98164.38;4895598;28;102188;-59
2022/07/15 01:06:42;;;;;;;;;4.00;4.00;;;;;23.98;49.29;98163.25;4907921;28;104081;-59
2022/07/15 01:09:09;;;;;;;;;4.33;4.00;;;;;23.96;49.09;98168.25;4895809;28;103575;-59
2022/07/15 01:11:36;;;;;;;;;4.00;4.00;;;;;23.95;49.34;98170.22;4902321;28;102259;-59
2022/07/15 01:14:04;;;;;;;;;3.67;3.67;;;;;23.94;49.18;98162.22;4916928;28;102212;-59
2022/07/15 01:16:31;;;;;;;;;4.00;4.00;;;;;23.93;49.44;98155.88;4914615;28;104078;-59
2022/07/15 01:18:58;;;;;;;;;3.33;3.33;;;;;23.93;49.30;98168.84;4916249;28;102132;-59
2022/07/15 01:21:25;;;;;;;;;4.00;4.00;;;;;23.94;49.10;98162.22;4912717;28;102150;-59
2022/07/15 01:23:52;;;;;;;;;4.00;4.00;;;;;23.93;49.36;98155.88;4917305;28;102224;-59
2022/07/15 01:26:19;;;;;;;;;4.00;4.00;;;;;23.94;49.27;98162.22;4915669;28;104184;-59
2022/07/15 01:28:47;;;;;;;;;5.00;4.00;;;;;23.95;49.23;98161.09;4911381;28;102669;-59
2022/07/15 01:31:14;;;;;;;;;4.00;4.00;;;;;23.94;49.20;98164.97;4909148;28;102603;-59
2022/07/15 01:33:42;;;;;;;;;3.33;3.33;;;;;23.94;49.17;98165.81;4912491;28;108711;-59
2022/07/15 01:36:09;;;;;;;;;4.00;3.00;;;;;23.93;49.08;98164.16;4913471;28;104052;-60
2022/07/15 01:38:37;;;;;;;;;3.00;3.00;;;;;23.95;49.12;98164.69;4912890;28;102404;-59
2022/07/15 01:41:15;;;;;;;;;4.00;3.67;;;;;23.93;49.29;98158.63;4907358;28;102113;-59
2022/07/15 01:43:42;;;;;;;;;4.33;4.33;;;;;23.92;49.46;98156.97;4912964;28;105764;-59
2022/07/15 01:46:09;;;;;;;;;4.00;3.00;;;;;23.93;49.22;98161.41;4913051;28;104057;-59
2022/07/15 01:51:22;;;;;;;;;4.00;4.00;;;;;23.91;49.18;98165.59;4910619;28;102291;-59
2022/07/15 01:53:49;;;;;;;;;4.00;4.00;;;;;23.90;49.42;98162.00;4914528;28;102190;-59
2022/07/15 01:56:16;;;;;;;;;4.00;3.00;;;;;23.89;49.24;98173.34;4902728;28;104041;-59
2022/07/15 01:58:43;;;;;;;;;4.00;4.00;;;;;23.89;49.48;98165.88;4913357;28;102084;-58
2022/07/15 02:01:10;;;;;;;;;4.67;4.67;;;;;23.89;49.24;98171.41;4911391;28;102573;-59
2022/07/15 02:03:38;;;;;;;;;4.00;4.00;;;;;23.90;49.28;98172.22;4913186;28;102208;-60
2022/07/15 02:06:05;;;;;;;;;4.00;4.00;;;;;23.90;49.27;98175.81;4913221;28;105065;-59
2022/07/15 02:08:32;;;;;;;;;5.00;4.33;;;;;23.91;49.25;98173.88;4912445;28;104078;-59
2022/07/15 02:10:59;;;;;;;;;4.33;3.33;;;;;23.90;49.31;98181.34;4908766;28;102682;-59
2022/07/15 02:13:26;;;;;;;;;2.00;2.00;;;;;23.89;49.15;98182.44;4914833;28;102625;-59
2022/07/15 02:15:54;;;;;;;;;5.00;4.00;;;;;23.90;49.09;98188.78;4911211;28;104071;-60
2022/07/15 02:18:21;;;;;;;;;3.00;3.00;;;;;23.89;49.40;98187.97;4914635;28;103130;-59
2022/07/15 02:20:48;;;;;;;;;4.33;4.33;;;;;23.89;49.37;98195.44;4913348;28;102887;-59
2022/07/15 02:23:15;;;;;;;;;3.00;3.00;;;;;23.85;49.48;98200.72;4913917;28;102528;-58
2022/07/15 02:25:42;;;;;;;;;4.00;3.67;;;;;23.87;49.24;98203.16;4912514;28;104062;-59
2022/07/15 02:28:09;;;;;;;;;3.00;3.00;;;;;23.85;49.28;98206.25;4909540;28;102175;-58
2022/07/15 02:30:38;;;;;;;;;3.00;3.00;;;;;23.85;49.41;98206.25;4912848;28;102555;-59
2022/07/15 02:33:05;;;;;;;;;3.00;3.00;;;;;23.86;49.43;98204.31;4915020;28;104000;-59
2022/07/15 02:35:32;;;;;;;;;3.00;2.33;;;;;23.87;49.40;98214.22;4910024;28;104077;-59
2022/07/15 02:37:59;;;;;;;;;3.00;3.00;;;;;23.87;49.18;98219.75;4914698;28;102403;-59
2022/07/15 02:40:27;;;;;;;;;3.00;3.00;;;;;23.86;49.39;98215.38;4914351;28;102677;-59
2022/07/15 02:42:55;;;;;;;;;3.00;3.00;;;;;23.86;49.27;98221.72;4913642;28;102368;-60
2022/07/15 02:45:23;;;;;;;;;4.00;4.00;;;;;23.85;49.25;98220.06;4914069;28;104052;-59
2022/07/15 02:47:51;;;;;;;;;4.00;3.67;;;;;23.85;49.25;98225.59;4910351;28;103307;-59
2022/07/15 02:50:18;;;;;;;;;3.33;3.00;;;;;23.85;49.43;98224.75;4910489;28;102645;-59
2022/07/15 02:52:45;;;;;;;;;3.33;2.67;;;;;23.84;49.40;98223.09;4915258;28;103286;-58
2022/07/15 02:55:12;;;;;;;;;4.00;4.00;;;;;23.84;49.25;98229.44;4908709;28;104130;-59
2022/07/15 02:57:39;;;;;;;;;3.67;3.67;;;;;23.81;49.50;98218.19;4911118;28;102367;-59
2022/07/15 03:00:09;;;;;;;;;4.00;4.00;;;;;23.81;49.40;98219.00;4913171;28;102355;-59
2022/07/15 03:02:36;;;;;;;;;4.67;4.67;;;;;23.80;49.40;98219.28;4899007;28;102451;-58
2022/07/15 03:05:04;;;;;;;;;5.00;4.00;;;;;23.78;49.42;98224.28;4911676;28;104265;-59
2022/07/15 03:07:32;;;;;;;;;2.00;2.00;;;;;23.80;49.53;98231.16;4912828;28;102464;-59
2022/07/15 03:09:59;;;;;;;;;3.67;3.00;;;;;23.80;49.48;98228.41;4908820;28;102251;-58
2022/07/15 03:12:26;;;;;;;;;3.00;3.00;;;;;23.81;49.51;98230.06;4909643;28;102598;-59
2022/07/15 03:14:53;;;;;;;;;3.00;3.00;;;;;23.79;49.39;98237.81;4914780;28;104886;-59
2022/07/15 03:17:21;;;;;;;;;3.33;3.00;;;;;23.81;49.51;98238.34;4919596;28;102272;-58
2022/07/15 03:19:48;;;;;;;;;5.00;4.00;;;;;23.80;49.45;98249.66;4913987;28;103699;-58
2022/07/15 03:22:15;;;;;;;;;4.00;4.00;;;;;23.81;49.52;98263.19;4915969;28;102815;-59
2022/07/15 03:24:42;;;;;;;;;3.00;3.00;;;;;23.80;49.40;98285.56;4912599;28;104029;-59
2022/07/15 03:27:09;;;;;;;;;3.00;3.00;;;;;23.79;49.42;98293.03;4910519;28;102225;-59
2022/07/15 03:29:37;;;;;;;;;4.00;4.00;;;;;23.77;49.52;98275.13;4915889;28;102314;-58
2022/07/15 03:32:05;;;;;;;;;3.00;3.00;;;;;23.76;49.43;98276.22;4914667;28;102200;-59
2022/07/15 03:34:32;;;;;;;;;4.00;4.00;;;;;23.76;49.47;98284.50;4916444;28;104207;-59
2022/07/15 03:36:59;;;;;;;;;4.67;4.33;;;;;23.74;49.73;98304.13;4918704;28;102209;-59
2022/07/15 03:39:26;;;;;;;;;3.00;3.00;;;;;23.74;49.69;98300.53;4918766;28;102282;-58
2022/07/15 03:41:53;;;;;;;;;2.00;2.00;;;;;23.76;49.48;98315.72;4917904;28;104583;-59
2022/07/15 03:44:20;;;;;;;;;3.00;3.00;;;;;23.73;49.85;98318.25;4919967;28;104091;-59
2022/07/15 03:46:47;;;;;;;;;4.00;4.00;;;;;23.72;49.75;98314.66;4913437;28;102213;-59
2022/07/15 03:49:15;;;;;;;;;3.00;3.00;;;;;23.75;49.52;98330.63;4917387;28;102196;-59
2022/07/15 03:51:42;;;;;;;;;4.00;3.67;;;;;23.75;49.66;98319.59;4917034;28;102358;-59
2022/07/15 03:54:09;;;;;;;;;4.00;4.00;;;;;23.77;49.64;98344.97;4912970;28;104093;-59
2022/07/15 03:56:36;;;;;;;;;3.00;3.00;;;;;23.75;49.53;98347.19;4912960;28;102151;-59
2022/07/15 03:59:04;;;;;;;;;3.00;3.00;;;;;23.75;49.64;98347.19;4915348;28;102371;-59
2022/07/15 04:01:31;;;;;;;;;3.00;3.00;;;;;23.73;49.63;98363.22;4918492;28;102626;-59
2022/07/15 04:03:58;;;;;;;;;3.67;3.00;;;;;23.73;49.51;98365.97;4915719;28;110822;-60
2022/07/15 04:06:25;;;;;;;;;3.00;2.00;;;;;23.74;49.51;98367.63;4915710;28;102361;-60
2022/07/15 04:08:52;;;;;;;;;3.00;3.00;;;;;23.71;49.60;98372.91;4916641;28;103344;-59
2022/07/15 04:11:19;;;;;;;;;3.00;3.00;;;;;23.72;49.71;98375.41;4912116;28;102281;-59
2022/07/15 04:13:47;;;;;;;;;3.00;3.00;;;;;23.74;49.67;98370.38;4913071;28;104302;-59
2022/07/15 04:16:14;;;;;;;;;3.00;3.00;;;;;23.73;49.46;98371.50;4914321;28;102421;-59
2022/07/15 04:18:41;;;;;;;;;3.67;3.67;;;;;23.76;49.42;98375.63;4916870;28;102340;-60
2022/07/15 04:21:09;;;;;;;;;4.00;4.00;;;;;23.75;49.69;98373.97;4917866;28;102649;-59
2022/07/15 04:23:36;;;;;;;;;4.00;3.00;;;;;23.76;49.51;98373.69;4917044;28;104325;-59
2022/07/15 04:26:03;;;;;;;;;2.67;2.33;;;;;23.76;49.59;98376.47;4918863;28;105309;-59
2022/07/15 04:28:30;;;;;;;;;3.00;3.00;;;;;23.75;49.43;98374.81;4919044;28;102087;-59
2022/07/15 04:30:57;;;;;;;;;4.33;3.00;;;;;23.74;49.58;98375.09;4916355;28;102173;-59
2022/07/15 04:33:24;;;;;;;;;4.00;4.00;;;;;23.72;49.54;98380.91;4916106;28;104096;-59
2022/07/15 04:35:52;;;;;;;;;3.67;3.00;;;;;23.71;49.36;98395.84;4919073;28;102150;-60
2022/07/15 04:38:19;;;;;;;;;3.33;3.33;;;;;23.71;49.38;98398.59;4917401;28;102223;-60
2022/07/15 04:40:46;;;;;;;;;2.67;2.67;;;;;23.70;49.46;98394.19;4915965;28;102576;-59
2022/07/15 04:43:13;;;;;;;;;4.00;4.00;;;;;23.69;49.48;98403.56;4928464;28;104117;-59
2022/07/15 04:45:40;;;;;;;;;3.00;3.00;;;;;23.72;49.52;98407.69;4918989;28;102042;-59
2022/07/15 04:50:45;;;;;;;;;4.00;4.00;;;;;23.71;49.38;98401.34;4915809;28;102026;-59
2022/07/15 04:50:55;;;;;;;;;2.33;2.33;;;;;23.73;49.48;98403.84;4910193;28;102259;-60
2022/07/15 04:53:22;;;;;;;;;2.33;2.33;;;;;23.73;49.40;98409.34;4917875;28;104052;-59
2022/07/15 04:55:49;;;;;;;;;3.00;3.00;;;;;23.74;49.45;98419.25;4914510;28;102086;-59
2022/07/15 04:58:17;;;;;;;;;3.00;3.00;;;;;23.74;49.45;98416.50;4915068;28;102233;-59
2022/07/15 05:00:44;;;;;;;;;4.33;3.67;;;;;23.73;49.38;98412.91;4915435;28;102477;-59
2022/07/15 05:03:12;;;;;;;;;3.00;3.00;;;;;23.73;49.36;98415.69;4914623;28;104139;-59
2022/07/15 05:05:39;;;;;;;;;3.33;3.33;;;;;23.73;49.30;98417.63;4916438;28;102335;-59
2022/07/15 05:08:06;;;;;;;;;2.33;2.33;;;;;23.71;49.28;98417.91;4911672;28;102487;-59
2022/07/15 05:10:34;;;;;;;;;2.67;2.67;;;;;23.71;49.39;98426.19;4920046;28;102230;-59
2022/07/15 05:13:04;;;;;;;;;3.00;3.00;;;;;23.71;49.53;98426.19;4912917;28;104101;-60
2022/07/15 05:15:31;;;;;;;;;5.00;3.67;;;;;23.70;49.53;98421.78;4913382;28;102443;-59
2022/07/15 05:17:58;;;;;;;;;5.00;3.67;;;;;23.73;49.29;98426.72;4918855;28;102092;-59
2022/07/15 05:20:26;;;;;;;;;2.00;2.00;;;;;23.74;49.42;98428.38;4919838;28;102507;-60
2022/07/15 05:22:53;;;;;;;;;2.67;2.67;;;;;23.75;49.31;98434.72;4917560;28;104046;-59
2022/07/15 05:25:20;;;;;;;;;2.33;2.33;;;;;23.73;49.44;98432.25;4914378;28;102284;-59
2022/07/15 05:27:48;;;;;;;;;2.00;2.00;;;;;23.75;49.34;98435.56;4915082;28;102857;-59
2022/07/15 05:30:16;;;;;;;;;2.00;2.00;;;;;23.75;49.25;98446.59;4917604;28;102376;-59
2022/07/15 05:32:43;;;;;;;;;2.33;2.33;;;;;23.75;49.16;98449.34;4915976;28;104069;-60
2022/07/15 05:35:12;;;;;;;;;3.00;3.00;;;;;23.75;49.15;98449.34;4914221;28;102281;-59
2022/07/15 05:37:39;;;;;;;;;2.00;2.00;;;;;23.75;49.35;98452.13;4916398;28;102209;-60
2022/07/15 05:40:07;;;;;;;;;3.00;3.00;;;;;23.76;49.42;98452.94;4914864;28;102356;-59
2022/07/15 05:42:35;;;;;;;;;1.00;1.00;;;;;23.73;49.17;98457.09;4916852;28;104066;-60
2022/07/15 05:45:02;;;;;;;;;2.00;2.00;;;;;23.76;49.24;98462.06;4915352;28;102293;-59
2022/07/15 05:47:29;;;;;;;;;3.00;3.00;;;;;23.75;49.08;98476.97;4917515;28;102185;-59
2022/07/15 05:49:56;;;;;;;;;3.00;3.00;;;;;23.75;49.29;98479.72;4918288;28;102485;-60
2022/07/15 05:52:23;;;;;;;;;2.00;2.00;;;;;23.77;49.01;98477.50;4920153;28;104002;-59
2022/07/15 05:54:50;;;;;;;;;2.00;2.00;;;;;23.78;49.10;98478.31;4917675;28;102126;-59
2022/07/15 05:57:17;;;;;;;;;2.67;2.67;;;;;23.78;49.12;98487.41;4915772;28;102175;-59
2022/07/15 05:59:44;;;;;;;;;2.67;2.00;;;;;23.79;49.24;98489.06;4914621;28;102145;-60
2022/07/15 06:02:13;;;;;;;;;2.67;2.67;;;;;23.78;49.17;98490.19;4913905;28;104223;-60
2022/07/15 06:04:42;;;;;;;;;3.00;3.00;;;;;23.78;48.97;98490.19;4916158;28;102315;-59
2022/07/15 06:07:09;;;;;;;;;3.00;2.67;;;;;23.79;48.95;98489.06;4909266;28;105196;-59
2022/07/15 06:09:36;;;;;;;;;2.00;2.00;;;;;23.79;49.19;98493.78;4917201;28;102372;-59
2022/07/15 06:12:03;;;;;;;;;2.00;2.00;;;;;23.78;49.12;98495.72;4913173;28;104390;-60
2022/07/15 06:14:30;;;;;;;;;2.00;2.00;;;;;23.78;49.02;98504.00;4918172;28;102165;-59
2022/07/15 06:17:03;;;;;;;;;2.00;2.00;;;;;23.78;48.97;98512.28;4916397;28;102474;-59
2022/07/15 06:19:30;;;;;;;;;1.67;1.67;;;;;23.80;48.98;98523.03;4914782;28;102097;-59
2022/07/15 06:21:57;;;;;;;;;3.00;2.00;;;;;23.78;48.99;98517.78;4913313;28;104231;-60
2022/07/15 06:24:25;;;;;;;;;2.00;2.00;;;;;23.78;48.95;98515.03;4914037;28;102181;-60
2022/07/15 06:26:52;;;;;;;;;2.33;1.67;;;;;23.78;49.12;98519.72;4920749;28;102181;-60
2022/07/15 06:29:19;;;;;;;;;2.00;2.00;;;;;23.79;49.05;98526.91;4917106;28;102278;-59
2022/07/15 06:31:46;;;;;;;;;3.00;3.00;;;;;23.78;49.13;98516.97;4916034;28;104095;-59
2022/07/15 06:34:13;;;;;;;;;3.00;3.00;;;;;23.78;49.01;98526.06;4912952;28;105697;-59
2022/07/15 06:36:41;;;;;;;;;2.00;2.00;;;;;23.79;49.06;98524.97;4915404;28;102208;-59
2022/07/15 06:39:08;;;;;;;;;2.00;2.00;;;;;23.79;49.09;98536.03;4917610;28;102597;-60
2022/07/15 06:41:35;;;;;;;;;2.33;2.00;;;;;23.79;49.05;98533.25;4915082;28;104748;-59
2022/07/15 06:44:05;;;;;;;;;1.67;1.67;;;;;23.78;48.85;98528.84;4911041;28;102495;-59
2022/07/15 06:46:32;;;;;;;;;2.00;2.00;;;;;23.78;49.04;98539.88;4910673;28;102115;-59
2022/07/15 06:48:59;;;;;;;;;2.00;2.00;;;;;23.79;49.07;98540.72;4918918;28;102817;-60
2022/07/15 06:51:26;;;;;;;;;2.67;2.00;;;;;23.77;48.92;98532.75;4911301;28;104351;-59
2022/07/15 06:53:53;;;;;;;;;1.00;1.00;;;;;23.79;48.86;98549.00;4915653;28;102120;-60
2022/07/15 06:56:21;;;;;;;;;2.00;2.00;;;;;23.78;48.82;98550.94;4917802;28;102632;-60
2022/07/15 06:58:48;;;;;;;;;2.67;2.00;;;;;23.77;48.96;98548.47;4913933;28;102250;-60
2022/07/15 07:01:15;;;;;;;;;2.33;2.00;;;;;23.76;48.97;98550.41;4913592;28;104261;-59
2022/07/15 07:03:42;;;;;;;;;2.00;2.00;;;;;23.76;48.88;98553.19;4916997;28;102151;-59
2022/07/15 07:06:26;;;;;;;;;2.67;2.00;;;;;23.77;49.02;98549.31;4906590;28;102322;-60
2022/07/15 07:08:53;;;;;;;;;1.00;1.00;;;;;23.76;49.10;98555.94;4922082;28;102355;-59
2022/07/15 07:11:20;;;;;;;;;1.67;1.67;;;;;23.76;48.98;98553.19;4918033;28;109011;-59
2022/07/15 07:13:49;;;;;;;;;2.00;2.00;;;;;23.76;49.05;98558.69;4919616;28;102451;-59
2022/07/15 07:16:16;;;;;;;;;2.00;2.00;;;;;23.76;49.02;98568.91;4916443;28;102347;-59
2022/07/15 07:18:50;;;;;;;;;2.00;2.00;;;;;23.75;49.12;98573.59;4915926;28;104988;-59
2022/07/15 07:21:17;;;;;;;;;3.00;3.00;;;;;23.77;48.83;98568.63;4919557;28;104214;-59
2022/07/15 07:23:45;;;;;;;;;2.00;2.00;;;;;23.77;49.01;98571.41;4941591;28;102207;-59
2022/07/15 07:26:15;;;;;;;;;1.67;1.67;;;;;23.77;49.05;98571.41;4916280;28;102802;-59
2022/07/15 07:28:43;;;;;;;;;3.00;3.00;;;;;23.79;48.89;98580.19;4916573;28;104168;-59
2022/07/15 07:31:12;;;;;;;;;2.00;2.00;;;;;23.79;48.87;98582.97;4909796;28;104117;-59
2022/07/15 07:33:39;;;;;;;;;2.00;2.00;;;;;23.81;48.86;98585.44;4915470;28;102283;-59
2022/07/15 07:36:06;;;;;;;;;1.00;1.00;;;;;23.80;48.87;98573.56;4912590;28;102228;-59
2022/07/15 07:38:34;;;;;;;;;1.00;1.00;;;;;23.81;48.77;98589.03;4918770;28;103132;-59
2022/07/15 07:41:01;;;;;;;;;2.00;2.00;;;;;23.82;48.81;98593.44;4916017;28;104131;-60
2022/07/15 07:43:28;;;;;;;;;1.67;1.67;;;;;23.82;48.93;98595.38;4919294;28;102311;-59
2022/07/15 07:45:56;;;;;;;;;2.00;2.00;;;;;23.83;48.84;98602.53;4917329;28;102511;-60
2022/07/15 07:48:23;;;;;;;;;1.00;1.00;;;;;23.83;48.98;98597.84;4922310;28;102394;-60
2022/07/15 07:50:51;;;;;;;;;1.33;1.33;;;;;23.82;48.79;98606.44;4914059;28;108971;-59
2022/07/15 07:53:18;;;;;;;;;2.00;2.00;;;;;23.82;48.81;98610.00;4916437;28;102532;-59
2022/07/15 07:55:45;;;;;;;;;1.33;1.33;;;;;23.82;48.72;98610.00;4920485;28;103127;-59
2022/07/15 07:58:15;;;;;;;;;2.00;2.00;;;;;23.83;48.65;98605.31;4912406;28;102360;-59
2022/07/15 08:00:43;;;;;;;;;1.33;1.33;;;;;23.83;48.88;98616.34;4913025;28;104228;-59
2022/07/15 08:03:10;;;;;;;;;1.00;1.00;;;;;23.83;48.95;98611.66;4915564;28;102015;-60
2022/07/15 08:05:38;;;;;;;;;1.00;1.00;;;;;23.82;48.89;98611.97;4912567;28;102214;-60
2022/07/15 08:08:17;;;;;;;;;2.00;2.00;;;;;23.83;48.92;98621.88;4919807;28;102167;-59
2022/07/15 08:10:48;;;;;;;;;2.00;2.00;;;;;23.83;48.70;98619.94;4924378;28;104098;-59
2022/07/15 08:13:16;;;;;;;;;2.00;2.00;;;;;23.84;48.76;98613.31;4918651;28;102462;-59
2022/07/15 08:15:43;;;;;;;;;2.67;2.00;;;;;23.85;48.71;98616.91;4911903;28;102195;-59
2022/07/15 08:18:11;;;;;;;;;2.00;2.00;;;;;23.84;48.85;98616.06;4918870;28;102251;-59
2022/07/15 08:20:38;;;;;;;;;2.33;2.33;;;;;23.85;48.74;98617.72;4917816;28;104171;-59
2022/07/15 08:23:06;;;;;;;;;1.00;1.00;;;;;23.84;48.80;98624.34;4919934;28;102283;-59
2022/07/15 08:25:36;;;;;;;;;2.00;2.00;;;;;23.84;48.70;98623.53;4917366;28;102376;-59
2022/07/15 08:28:04;;;;;;;;;1.00;1.00;;;;;23.83;48.67;98633.75;4919444;28;102378;-59
2022/07/15 08:30:31;;;;;;;;;1.67;1.67;;;;;23.83;48.70;98614.41;4915904;28;104278;-59
2022/07/15 08:32:59;;;;;;;;;2.00;1.00;;;;;23.84;48.47;98627.13;4917635;28;102249;-59
2022/07/15 08:35:26;;;;;;;;;1.33;1.33;;;;;23.85;48.82;98620.50;4915993;28;101949;-59
2022/07/15 08:37:53;;;;;;;;;1.00;1.00;;;;;23.83;48.73;98636.50;4922277;28;102355;-59
2022/07/15 08:40:20;;;;;;;;;1.00;1.00;;;;;23.84;48.91;98623.53;4914138;28;109212;-59
2022/07/15 08:42:47;;;;;;;;;1.00;1.00;;;;;23.84;48.88;98627.13;4912985;28;102554;-59
2022/07/15 08:45:15;;;;;;;;;1.00;1.00;;;;;23.85;48.65;98637.06;4918703;28;102323;-59
2022/07/15 08:47:44;;;;;;;;;2.00;1.00;;;;;23.86;48.92;98635.97;4914030;28;102209;-59
2022/07/15 08:50:21;;;;;;;;;1.33;1.33;;;;;23.86;48.74;98635.13;4915462;28;108929;-59
2022/07/15 08:52:48;;;;;;;;;1.00;1.00;;;;;23.87;48.85;98643.09;4917208;28;102155;-59
2022/07/15 08:55:18;;;;;;;;;0.67;0.67;;;;;23.87;48.92;98637.59;4920116;28;102108;-59
2022/07/15 08:57:48;;;;;;;;;2.00;2.00;;;;;23.87;48.81;98643.09;4917228;28;102634;-59
2022/07/15 09:00:16;;;;;;;;;2.00;1.00;;;;;23.88;48.84;98644.75;4917832;28;104115;-59
2022/07/15 09:02:43;;;;;;;;;1.00;1.00;;;;;23.86;48.71;98640.66;4915799;28;102334;-60
2022/07/15 09:05:22;;;;;;;;;1.67;1.67;;;;;23.89;48.57;98642.84;4915534;28;102143;-59
2022/07/15 09:07:55;;;;;;;;;1.00;1.00;;;;;23.88;48.75;98642.00;4914710;28;102564;-59
2022/07/15 09:10:24;;;;;;;;;2.00;1.67;;;;;23.87;48.67;98637.59;4918417;28;108865;-59
2022/07/15 09:12:51;;;;;;;;;2.00;1.33;;;;;23.87;48.82;98642.28;4931166;28;102150;-59
2022/07/15 09:15:32;;;;;;;;;1.00;1.00;;;;;23.87;48.90;98631.22;4916849;28;102341;-59
2022/07/15 09:18:08;;;;;;;;;1.33;1.33;;;;;23.88;48.64;98644.75;4911037;28;102173;-59
2022/07/15 09:20:36;;;;;;;;;1.00;1.00;;;;;23.89;48.68;98645.59;4912354;28;104257;-59
2022/07/15 09:23:03;;;;;;;;;1.67;1.67;;;;;23.88;48.68;98644.75;4918353;28;102319;-60
2022/07/15 09:25:34;;;;;;;;;1.33;1.33;;;;;23.88;48.75;98650.28;4914934;28;102508;-59
2022/07/15 09:28:06;;;;;;;;;1.00;1.00;;;;;23.89;48.63;98645.59;4916877;28;102415;-58
2022/07/15 09:33:43;;;;;;;;;2.00;2.00;;;;;23.89;48.66;98646.41;4915654;28;102392;-59
2022/07/15 09:36:11;;;;;;;;;1.67;1.00;;;;;23.90;48.72;98628.75;4917039;28;102167;-59
2022/07/15 09:38:51;;;;;;;;;1.33;1.00;;;;;23.91;48.68;98638.66;4915554;28;102216;-59
2022/07/15 09:41:37;;;;;;;;;1.00;1.00;;;;;23.91;48.68;98638.66;4914570;28;104192;-59
2022/07/15 09:44:23;;;;;;;;;2.00;2.00;;;;;23.91;49.05;98638.66;4911076;28;102149;-59
2022/07/15 09:46:57;;;;;;;;;1.00;1.00;;;;;23.92;48.71;98640.31;4915356;28;102218;-59
2022/07/15 09:49:24;;;;;;;;;1.67;1.67;;;;;23.91;48.60;98638.66;4931362;28;102240;-59
2022/07/15 09:51:57;;;;;;;;;1.33;1.00;;;;;23.91;48.77;98637.84;4905524;28;109223;-59
2022/07/15 09:54:31;;;;;;;;;1.00;1.00;;;;;23.91;48.59;98637.84;4915468;28;102312;-59
2022/07/15 09:57:02;;;;;;;;;0.00;0.00;;;;;23.92;48.65;98637.56;4907938;28;102151;-59
2022/07/15 09:59:29;;;;;;;;;1.00;1.00;;;;;23.91;48.87;98627.59;4915901;28;102573;-59
2022/07/15 10:01:59;;;;;;;;;0.33;0.33;;;;;23.92;48.58;98634.78;4915189;28;104600;-59
2022/07/15 10:04:28;;;;;;;;;1.00;1.00;;;;;23.93;48.82;98635.63;4906607;28;102516;-59
2022/07/15 10:06:57;;;;;;;;;1.00;1.00;;;;;23.93;48.83;98639.22;4915122;28;102382;-59
2022/07/15 10:09:44;;;;;;;;;0.33;0.33;;;;;23.93;48.71;98636.44;4908858;28;102478;-59
2022/07/15 10:12:22;;;;;;;;;1.00;1.00;;;;;23.94;48.53;98638.09;4911869;28;104066;-59
2022/07/15 10:15:26;;;;;;;;;1.00;1.00;;;;;23.95;48.76;98636.16;4922028;28;102158;-59
2022/07/15 10:18:26;;;;;;;;;2.00;1.00;;;;;23.94;48.82;98629.81;4907875;28;102296;-60
2022/07/15 10:21:28;;;;;;;;;0.67;0.67;;;;;23.94;48.58;98629.81;4916684;28;102294;-60
2022/07/15 10:24:32;;;;;;;;;1.00;1.00;;;;;23.95;48.75;98634.25;4896776;28;108850;-59
2022/07/15 10:27:28;;;;;;;;;1.00;1.00;;;;;23.96;48.78;98635.88;4911100;28;102220;-59
2022/07/15 10:29:55;;;;;;;;;0.67;0.67;;;;;23.96;48.65;98635.03;4908821;28;102238;-59
2022/07/15 10:32:22;;;;;;;;;1.67;1.00;;;;;23.95;48.60;98628.72;4919002;28;102653;-59
2022/07/15 10:34:50;;;;;;;;;1.33;1.00;;;;;23.95;48.63;98639.75;4918013;28;108604;-59
2022/07/15 10:37:17;;;;;;;;;0.67;0.67;;;;;23.97;48.61;98631.16;4916304;28;102576;-59
2022/07/15 10:40:06;;;;;;;;;0.00;0.00;;;;;23.97;48.61;98636.69;4934271;28;102444;-59
2022/07/15 10:43:02;;;;;;;;;0.67;0.33;;;;;23.97;48.75;98623.72;4914069;28;102143;-59
2022/07/15 10:45:29;;;;;;;;;1.00;1.00;;;;;23.98;48.76;98643.88;4906928;28;109038;-59
2022/07/15 10:48:32;;;;;;;;;1.00;1.00;;;;;23.98;48.42;98639.19;4916819;28;102162;-59
2022/07/15 10:50:59;;;;;;;;;1.00;1.00;;;;;23.98;48.77;98630.91;4853879;28;102139;-59
2022/07/15 10:53:27;;;;;;;;;1.00;1.00;;;;;23.98;48.66;98635.59;4900483;28;102481;-59
2022/07/15 10:55:55;;;;;;;;;1.00;1.00;;;;;23.98;48.60;98641.94;4914754;28;104201;-59
2022/07/15 10:58:22;;;;;;;;;1.00;1.00;;;;;23.99;48.59;98646.38;4910819;28;103174;-59
2022/07/15 11:00:49;;;;;;;;;1.00;1.00;;;;;24.00;48.46;98645.22;4909838;28;102132;-59
2022/07/15 11:03:18;;;;;;;;;1.00;1.00;;;;;23.99;48.52;98646.38;4918228;28;102184;-59
2022/07/15 11:05:46;;;;;;;;;1.00;1.00;;;;;24.00;48.52;98641.66;4909521;28;104051;-60
2022/07/15 11:08:31;;;;;;;;;1.33;1.00;;;;;24.00;48.65;98645.22;4912733;28;102214;-59
2022/07/15 11:11:13;;;;;;;;;1.00;1.00;;;;;24.00;48.68;98642.47;4913442;28;102100;-59
2022/07/15 11:13:41;;;;;;;;;0.00;0.00;;;;;24.01;48.46;98638.59;4915868;28;102321;-60
2022/07/15 11:16:12;;;;;;;;;0.67;0.67;;;;;24.02;48.64;98656.81;4910966;28;104053;-59
2022/07/15 11:18:49;;;;;;;;;1.00;1.00;;;;;24.04;48.68;98655.72;4914878;28;102256;-59
2022/07/15 11:21:17;;;;;;;;;1.00;1.00;;;;;24.03;48.46;98654.91;4908120;28;102477;-59
2022/07/15 11:23:44;;;;;;;;;0.00;0.00;;;;;24.02;48.48;98648.53;4908185;28;102286;-59
2022/07/15 11:26:11;;;;;;;;;0.00;0.00;;;;;24.05;48.71;98660.09;4911836;28;104087;-59
2022/07/15 11:28:47;;;;;;;;;1.00;1.00;;;;;24.05;48.58;98665.63;4915802;28;102338;-59
2022/07/15 11:31:15;;;;;;;;;0.00;0.00;;;;;24.05;48.68;98649.06;4907396;28;102654;-59
2022/07/15 11:33:42;;;;;;;;;1.00;1.00;;;;;24.05;48.47;98649.88;4915190;28;102576;-60
2022/07/15 11:36:20;;;;;;;;;1.00;1.00;;;;;24.05;48.31;98649.06;4908438;28;104275;-60
2022/07/15 11:38:47;;;;;;;;;0.67;0.67;;;;;24.06;48.31;98647.94;4913716;28;102484;-59
2022/07/15 11:46:55;;;;;;;;;1.33;1.00;;;;;24.06;48.53;98650.72;4911737;28;108954;-59